Time;durP1;ratioP1;P1;durP2;ratioP2;P2;SDS_P1;SDS_P2;PMS_P1;PMS_P2;Temp;Humidity;BMP_temperature;BMP_pressure;BME280_temperature;BME280_humidity;BME280_pressure;Samples;Min_cycle;Max_cycle;Signal;HPM_P1;HPM_P2
2022/12/19 00:01:25;;;;;;;;;16.00;14.00;;;;;;;;5038862;28;11529;-81
2022/12/19 00:03:56;;;;;;;;;15.75;14.00;;;;;;;;5039914;28;11559;-82
2022/12/19 00:06:24;;;;;;;;;21.00;15.00;;;;;;;;5037798;28;11590;-82
2022/12/19 00:08:52;;;;;;;;;21.50;20.00;;;;;;;;5035034;28;11550;-83
2022/12/19 00:11:22;;;;;;;;;19.75;17.25;;;;;;;;5039289;28;11547;-82
2022/12/19 00:13:50;;;;;;;;;21.00;18.50;;;;;;;;5041377;28;11563;-82
2022/12/19 00:16:19;;;;;;;;;15.75;15.75;;;;;;;;5037732;28;11583;-82
2022/12/19 00:18:48;;;;;;;;;19.50;15.75;;;;;;;;5040233;28;11552;-82
2022/12/19 00:21:18;;;;;;;;;21.25;17.25;;;;;;;;5039002;28;11745;-82
2022/12/19 00:23:45;;;;;;;;;17.25;15.50;;;;;;;;5037114;28;11565;-82
2022/12/19 00:26:18;;;;;;;;;16.25;16.25;;;;;;;;5042077;28;11581;-83
2022/12/19 00:28:47;;;;;;;;;15.75;15.75;;;;;;;;5021178;28;11651;-83
2022/12/19 00:31:15;;;;;;;;;21.25;19.00;;;;;;;;5038639;28;11578;-82
2022/12/19 00:33:43;;;;;;;;;16.75;15.25;;;;;;;;5040677;28;11546;-83
2022/12/19 00:36:13;;;;;;;;;17.50;15.75;;;;;;;;5037256;28;12133;-82
2022/12/19 00:38:42;;;;;;;;;22.25;18.50;;;;;;;;5034265;28;11535;-83
2022/12/19 00:41:11;;;;;;;;;19.00;17.75;;;;;;;;5036508;28;11538;-83
2022/12/19 00:43:38;;;;;;;;;22.25;21.75;;;;;;;;5053369;28;11573;-82
2022/12/19 00:46:07;;;;;;;;;15.25;14.75;;;;;;;;5038216;28;11565;-83
2022/12/19 00:48:35;;;;;;;;;12.75;12.75;;;;;;;;5034868;28;11567;-83
2022/12/19 00:51:03;;;;;;;;;15.50;15.50;;;;;;;;5032902;28;11652;-83
2022/12/19 00:53:31;;;;;;;;;14.75;14.00;;;;;;;;5043431;28;11551;-83
2022/12/19 00:56:03;;;;;;;;;19.50;17.50;;;;;;;;5043432;28;11577;-83
2022/12/19 00:58:31;;;;;;;;;12.75;12.25;;;;;;;;5038986;28;11605;-83
2022/12/19 01:00:59;;;;;;;;;1.00;1.00;;;;;;;;5038693;28;11538;-83
2022/12/19 01:03:27;;;;;;;;;14.75;13.00;;;;;;;;5036595;28;11519;-83
2022/12/19 01:05:54;;;;;;;;;16.00;13.00;;;;;;;;5041619;28;11574;-83
2022/12/19 01:08:22;;;;;;;;;14.00;14.00;;;;;;;;5040581;28;11536;-83
2022/12/19 01:10:50;;;;;;;;;17.00;17.00;;;;;;;;5039628;28;11549;-82
2022/12/19 01:13:20;;;;;;;;;17.00;17.00;;;;;;;;5026941;28;11579;-83
2022/12/19 01:15:48;;;;;;;;;13.00;13.00;;;;;;;;5041530;28;12440;-83
2022/12/19 01:18:15;;;;;;;;;12.00;12.00;;;;;;;;5041279;28;11552;-82
2022/12/19 01:20:46;;;;;;;;;12.75;12.75;;;;;;;;5042981;28;11540;-83
2022/12/19 01:23:14;;;;;;;;;12.00;12.00;;;;;;;;5044230;28;11577;-82
2022/12/19 01:25:42;;;;;;;;;14.00;14.00;;;;;;;;5040652;28;11525;-82
2022/12/19 01:28:14;;;;;;;;;13.25;12.50;;;;;;;;5027276;28;11585;-83
2022/12/19 01:30:43;;;;;;;;;13.50;12.00;;;;;;;;5041286;28;11556;-82
2022/12/19 01:33:12;;;;;;;;;13.25;12.00;;;;;;;;5047189;28;11521;-82
2022/12/19 01:35:40;;;;;;;;;11.75;11.75;;;;;;;;5042891;28;11548;-82
2022/12/19 01:38:07;;;;;;;;;10.75;10.75;;;;;;;;5040703;28;11580;-82
2022/12/19 01:40:36;;;;;;;;;14.75;11.25;;;;;;;;5043201;28;11611;-83
2022/12/19 01:43:04;;;;;;;;;9.50;9.50;;;;;;;;5062975;28;11522;-81
2022/12/19 01:45:32;;;;;;;;;12.00;12.00;;;;;;;;5043199;28;11541;-82
2022/12/19 01:48:12;;;;;;;;;12.75;12.75;;;;;;;;5038646;28;12412;-83
2022/12/19 01:50:42;;;;;;;;;12.50;12.50;;;;;;;;5041561;28;11522;-82
2022/12/19 01:53:11;;;;;;;;;16.00;13.00;;;;;;;;5040070;28;11518;-82
2022/12/19 01:55:40;;;;;;;;;8.50;6.75;;;;;;;;5038808;28;11554;-83
2022/12/19 01:58:08;;;;;;;;;19.00;17.25;;;;;;;;5043916;28;11531;-84
2022/12/19 02:00:36;;;;;;;;;12.25;12.25;;;;;;;;5043379;28;12329;-84
2022/12/19 02:03:08;;;;;;;;;14.75;13.50;;;;;;;;5041523;28;11543;-81
2022/12/19 02:05:36;;;;;;;;;13.25;11.75;;;;;;;;5055003;28;11731;-84
2022/12/19 02:08:04;;;;;;;;;10.75;8.50;;;;;;;;5040616;28;11544;-83
2022/12/19 02:10:31;;;;;;;;;13.75;13.75;;;;;;;;5042919;28;11564;-83
2022/12/19 02:12:59;;;;;;;;;11.50;9.75;;;;;;;;5042733;28;11566;-82
2022/12/19 02:15:29;;;;;;;;;7.50;7.50;;;;;;;;5037269;28;11551;-83
2022/12/19 02:18:07;;;;;;;;;12.25;12.25;;;;;;;;5042776;28;11467;-83
2022/12/19 02:21:08;;;;;;;;;12.50;12.50;;;;;;;;5041759;28;11517;-83
2022/12/19 02:24:11;;;;;;;;;12.75;11.75;;;;;;;;5045690;28;11608;-84
2022/12/19 02:27:01;;;;;;;;;13.00;11.25;;;;;;;;5021513;28;11673;-83
2022/12/19 02:29:52;;;;;;;;;13.75;12.00;;;;;;;;5043669;28;11710;-84
2022/12/19 02:32:25;;;;;;;;;9.75;9.75;;;;;;;;5044378;28;11561;-84
2022/12/19 02:34:58;;;;;;;;;15.00;12.25;;;;;;;;5045335;28;11490;-83
2022/12/19 02:37:29;;;;;;;;;13.50;12.00;;;;;;;;5055414;28;11566;-83
2022/12/19 02:40:02;;;;;;;;;11.75;9.00;;;;;;;;5056706;28;11545;-84
2022/12/19 02:42:31;;;;;;;;;14.00;14.00;;;;;;;;5039433;28;11522;-81
2022/12/19 02:44:59;;;;;;;;;12.50;11.00;;;;;;;;5023513;28;11478;-82
2022/12/19 02:47:29;;;;;;;;;8.00;8.00;;;;;;;;5042838;28;11529;-82
2022/12/19 02:49:57;;;;;;;;;13.00;11.00;;;;;;;;5044656;28;11417;-83
2022/12/19 02:52:46;;;;;;;;;16.00;11.25;;;;;;;;5049596;28;11592;-82
2022/12/19 02:55:17;;;;;;;;;11.75;11.50;;;;;;;;5043084;28;11594;-82
2022/12/19 02:58:01;;;;;;;;;14.50;11.00;;;;;;;;5043690;28;11567;-82
2022/12/19 03:00:29;;;;;;;;;12.25;12.25;;;;;;;;5046546;28;11456;-83
2022/12/19 03:03:10;;;;;;;;;11.75;9.50;;;;;;;;5047668;28;11439;-83
2022/12/19 03:05:45;;;;;;;;;9.25;8.00;;;;;;;;5043591;28;12328;-83
2022/12/19 03:08:21;;;;;;;;;9.25;9.25;;;;;;;;5039540;28;11472;-82
2022/12/19 03:10:54;;;;;;;;;13.25;10.75;;;;;;;;5039220;28;11535;-83
2022/12/19 03:13:25;;;;;;;;;9.00;9.00;;;;;;;;5041662;28;11533;-83
2022/12/19 03:15:53;;;;;;;;;10.75;10.75;;;;;;;;5038563;28;12240;-83
2022/12/19 03:18:22;;;;;;;;;8.00;8.00;;;;;;;;5043103;28;11416;-83
2022/12/19 03:20:53;;;;;;;;;17.50;13.75;;;;;;;;5042598;28;11432;-83
2022/12/19 03:23:21;;;;;;;;;8.50;8.50;;;;;;;;5058417;28;11613;-83
2022/12/19 03:25:52;;;;;;;;;10.75;9.75;;;;;;;;5042249;28;11435;-83
2022/12/19 03:28:24;;;;;;;;;9.00;9.00;;;;;;;;5058477;28;11480;-83
2022/12/19 03:30:52;;;;;;;;;9.75;9.00;;;;;;;;5043852;28;12207;-83
2022/12/19 03:33:22;;;;;;;;;9.75;9.00;;;;;;;;5037808;28;11488;-84
2022/12/19 03:35:51;;;;;;;;;9.00;9.00;;;;;;;;5039315;28;11463;-84
2022/12/19 03:38:20;;;;;;;;;10.00;10.00;;;;;;;;5042743;28;11485;-84
2022/12/19 03:40:48;;;;;;;;;7.25;7.25;;;;;;;;5041364;28;11453;-84
2022/12/19 03:43:16;;;;;;;;;8.00;8.00;;;;;;;;5042249;28;11419;-85
2022/12/19 03:45:48;;;;;;;;;13.00;10.00;;;;;;;;5040565;28;11420;-84
2022/12/19 03:48:19;;;;;;;;;13.50;12.25;;;;;;;;5036639;28;11629;-84
2022/12/19 03:50:55;;;;;;;;;12.25;10.25;;;;;;;;5040082;28;11494;-83
2022/12/19 03:53:35;;;;;;;;;10.00;10.00;;;;;;;;5037590;28;11492;-83
2022/12/19 03:56:10;;;;;;;;;11.75;9.00;;;;;;;;5023317;28;11492;-83
2022/12/19 03:58:40;;;;;;;;;10.75;8.50;;;;;;;;5041817;28;11426;-82
2022/12/19 04:01:08;;;;;;;;;10.75;10.25;;;;;;;;5041207;28;11572;-82
2022/12/19 04:03:36;;;;;;;;;9.50;9.50;;;;;;;;5038108;28;11460;-81
2022/12/19 04:06:06;;;;;;;;;9.00;9.00;;;;;;;;5038882;28;11500;-81
2022/12/19 04:08:34;;;;;;;;;9.25;8.50;;;;;;;;5039365;28;11514;-82
2022/12/19 04:11:07;;;;;;;;;12.75;9.50;;;;;;;;5042471;28;11500;-82
2022/12/19 04:13:39;;;;;;;;;12.25;12.25;;;;;;;;5041820;28;11488;-82
2022/12/19 04:16:13;;;;;;;;;8.75;8.75;;;;;;;;5037619;28;11512;-83
2022/12/19 04:18:41;;;;;;;;;12.25;12.25;;;;;;;;5034390;28;11472;-83
2022/12/19 04:21:15;;;;;;;;;9.50;9.50;;;;;;;;5035081;28;11453;-82
2022/12/19 04:23:47;;;;;;;;;14.00;12.50;;;;;;;;5042595;28;11478;-83
2022/12/19 04:26:18;;;;;;;;;9.75;9.75;;;;;;;;5038922;28;11513;-83
2022/12/19 04:28:49;;;;;;;;;7.75;7.75;;;;;;;;5039541;28;11482;-83
2022/12/19 04:31:17;;;;;;;;;9.50;8.00;;;;;;;;5040658;28;12237;-82
2022/12/19 04:33:45;;;;;;;;;9.25;9.25;;;;;;;;5043428;28;11447;-82
2022/12/19 04:36:14;;;;;;;;;10.25;8.75;;;;;;;;5039103;28;11505;-82
2022/12/19 04:38:41;;;;;;;;;9.50;8.50;;;;;;;;5022952;28;11490;-84
2022/12/19 04:41:09;;;;;;;;;17.00;13.75;;;;;;;;5039338;28;11499;-83
2022/12/19 04:43:37;;;;;;;;;12.00;12.00;;;;;;;;5042185;28;11554;-82
2022/12/19 04:46:04;;;;;;;;;14.00;11.25;;;;;;;;5043355;28;11489;-83
2022/12/19 04:48:32;;;;;;;;;16.00;12.75;;;;;;;;5025362;28;11572;-85
2022/12/19 04:50:59;;;;;;;;;12.50;10.50;;;;;;;;5040981;28;11533;-84
2022/12/19 04:53:28;;;;;;;;;12.00;8.25;;;;;;;;5039700;28;11459;-84
2022/12/19 04:56:01;;;;;;;;;9.00;9.00;;;;;;;;5038184;28;11508;-84
2022/12/19 04:58:29;;;;;;;;;13.00;11.00;;;;;;;;5039551;28;11564;-84
2022/12/19 05:01:01;;;;;;;;;11.00;10.00;;;;;;;;5038348;28;11500;-84
2022/12/19 05:03:29;;;;;;;;;9.25;9.00;;;;;;;;5039078;28;11634;-84
2022/12/19 05:06:04;;;;;;;;;8.00;8.00;;;;;;;;5037251;28;11484;-84
2022/12/19 05:08:34;;;;;;;;;7.00;7.00;;;;;;;;5038655;28;11576;-84
2022/12/19 05:11:01;;;;;;;;;9.00;7.75;;;;;;;;5038226;28;11454;-84
2022/12/19 05:13:29;;;;;;;;;9.00;9.00;;;;;;;;5054163;28;11457;-83
2022/12/19 05:15:58;;;;;;;;;10.50;10.50;;;;;;;;5040543;28;11434;-84
2022/12/19 05:18:25;;;;;;;;;12.50;10.00;;;;;;;;5040048;28;11457;-84
2022/12/19 05:20:53;;;;;;;;;9.00;9.00;;;;;;;;5040483;28;11478;-84
2022/12/19 05:23:21;;;;;;;;;5.50;5.50;;;;;;;;5039102;28;11474;-83
2022/12/19 05:25:50;;;;;;;;;7.75;7.75;;;;;;;;5040695;28;11610;-84
2022/12/19 05:28:20;;;;;;;;;9.75;9.50;;;;;;;;5037943;28;11460;-85
2022/12/19 05:30:49;;;;;;;;;7.00;7.00;;;;;;;;5039971;28;11410;-85
2022/12/19 05:33:17;;;;;;;;;7.50;7.50;;;;;;;;5038148;28;12185;-85
2022/12/19 05:35:45;;;;;;;;;8.50;8.50;;;;;;;;5038765;28;11573;-84
2022/12/19 05:38:12;;;;;;;;;11.75;8.50;;;;;;;;5042417;28;11597;-84
2022/12/19 05:40:40;;;;;;;;;9.00;9.00;;;;;;;;5045366;28;11467;-84
2022/12/19 05:43:09;;;;;;;;;8.25;8.25;;;;;;;;5038976;28;11589;-84
2022/12/19 05:45:39;;;;;;;;;8.25;8.25;;;;;;;;5045020;28;11560;-83
2022/12/19 05:48:07;;;;;;;;;9.00;9.00;;;;;;;;5035458;28;11442;-82
2022/12/19 05:50:34;;;;;;;;;8.50;8.50;;;;;;;;5036382;28;11464;-82
2022/12/19 05:53:03;;;;;;;;;9.75;8.00;;;;;;;;5043637;28;11470;-88
2022/12/19 05:58:14;;;;;;;;;8.25;8.25;;;;;;;;5041132;28;11450;-73
2022/12/19 06:00:41;;;;;;;;;9.75;8.00;;;;;;;;5038303;28;11615;-73
2022/12/19 06:03:09;;;;;;;;;9.50;9.50;;;;;;;;5041193;28;11478;-73
2022/12/19 06:05:40;;;;;;;;;8.00;8.00;;;;;;;;5038052;28;11583;-73
2022/12/19 06:08:07;;;;;;;;;9.00;9.00;;;;;;;;5038322;28;11438;-72
2022/12/19 06:10:34;;;;;;;;;10.00;8.00;;;;;;;;5041205;28;12258;-72
2022/12/19 06:13:02;;;;;;;;;8.50;8.50;;;;;;;;5036428;28;11469;-72
2022/12/19 06:15:31;;;;;;;;;8.25;8.25;;;;;;;;5040136;28;11437;-75
2022/12/19 06:17:58;;;;;;;;;8.00;8.00;;;;;;;;5037619;28;11440;-75
2022/12/19 06:20:26;;;;;;;;;8.00;8.00;;;;;;;;5037247;28;11504;-75
2022/12/19 06:22:53;;;;;;;;;6.75;6.75;;;;;;;;5042532;28;11454;-75
2022/12/19 06:25:20;;;;;;;;;10.25;10.25;;;;;;;;5023062;28;11481;-75
2022/12/19 06:27:48;;;;;;;;;9.75;9.75;;;;;;;;5043986;28;11452;-75
2022/12/19 06:30:15;;;;;;;;;8.75;8.00;;;;;;;;5042342;28;11493;-75
2022/12/19 06:32:44;;;;;;;;;8.75;8.00;;;;;;;;5042296;28;11435;-75
2022/12/19 06:35:12;;;;;;;;;5.50;5.50;;;;;;;;5039939;28;11447;-75
2022/12/19 06:37:39;;;;;;;;;13.25;12.00;;;;;;;;5041166;28;12244;-75
2022/12/19 06:42:21;;;;;;;;;13.50;10.00;;;;;;;;5041491;28;11501;-75
2022/12/19 06:42:56;;;;;;;;;9.50;8.00;;;;;;;;5042989;28;11502;-75
2022/12/19 06:45:23;;;;;;;;;12.75;12.75;;;;;;;;5040808;28;12058;-75
2022/12/19 06:47:52;;;;;;;;;10.00;10.00;;;;;;;;5037852;28;11571;-75
2022/12/19 06:50:19;;;;;;;;;9.50;7.00;;;;;;;;5036570;28;11466;-76
2022/12/19 06:52:47;;;;;;;;;7.75;7.75;;;;;;;;5039099;28;11530;-75
2022/12/19 06:55:14;;;;;;;;;10.25;8.25;;;;;;;;5040156;28;12178;-75
2022/12/19 06:57:44;;;;;;;;;9.00;9.00;;;;;;;;5034872;28;11475;-75
2022/12/19 07:00:13;;;;;;;;;7.75;7.75;;;;;;;;5037195;28;11443;-73
2022/12/19 07:02:43;;;;;;;;;10.25;10.25;;;;;;;;5039612;28;12237;-77
2022/12/19 07:05:13;;;;;;;;;17.50;14.75;;;;;;;;5052501;28;11492;-73
2022/12/19 07:07:41;;;;;;;;;13.25;11.75;;;;;;;;5038069;28;11497;-78
2022/12/19 07:10:09;;;;;;;;;10.00;10.00;;;;;;;;5039731;28;11476;-78
2022/12/19 07:12:37;;;;;;;;;12.00;12.00;;;;;;;;5039727;28;11479;-76
2022/12/19 07:15:05;;;;;;;;;12.25;12.25;;;;;;;;5036209;28;11472;-75
2022/12/19 07:17:33;;;;;;;;;12.00;12.00;;;;;;;;5041666;28;11492;-75
2022/12/19 07:20:00;;;;;;;;;9.25;9.25;;;;;;;;5042455;28;11513;-75
2022/12/19 07:22:33;;;;;;;;;7.25;6.75;;;;;;;;5041190;28;11448;-74
2022/12/19 07:25:01;;;;;;;;;8.00;8.00;;;;;;;;5042707;28;11459;-74
2022/12/19 07:27:28;;;;;;;;;12.00;12.00;;;;;;;;5041237;28;11451;-75
2022/12/19 07:29:56;;;;;;;;;7.50;7.50;;;;;;;;5040805;28;11501;-75
2022/12/19 07:32:23;;;;;;;;;14.50;10.50;;;;;;;;5040962;28;11498;-74
2022/12/19 07:34:51;;;;;;;;;8.75;7.75;;;;;;;;5036501;28;11455;-73
2022/12/19 07:37:18;;;;;;;;;7.75;7.75;;;;;;;;5038351;28;11465;-73
2022/12/19 07:39:47;;;;;;;;;9.50;7.50;;;;;;;;5037824;28;11430;-75
2022/12/19 07:42:15;;;;;;;;;8.75;8.75;;;;;;;;5039102;28;12451;-76
2022/12/19 07:44:42;;;;;;;;;8.50;8.50;;;;;;;;5040552;28;11549;-75
2022/12/19 07:47:09;;;;;;;;;7.00;7.00;;;;;;;;5040212;28;11625;-76
2022/12/19 07:49:37;;;;;;;;;6.50;6.50;;;;;;;;5042591;28;11429;-76
2022/12/19 07:52:05;;;;;;;;;7.25;7.25;;;;;;;;5037314;28;11439;-76
2022/12/19 07:54:32;;;;;;;;;7.00;6.75;;;;;;;;5039093;28;11466;-76
2022/12/19 07:57:01;;;;;;;;;7.25;7.25;;;;;;;;5038281;28;12292;-76
2022/12/19 07:59:29;;;;;;;;;9.00;8.50;;;;;;;;5036133;28;11537;-75
2022/12/19 08:01:56;;;;;;;;;8.50;4.00;;;;;;;;5039406;28;11561;-76
2022/12/19 08:04:24;;;;;;;;;8.50;8.00;;;;;;;;5035284;28;12209;-76
2022/12/19 08:06:51;;;;;;;;;6.50;6.50;;;;;;;;5037856;28;11453;-76
2022/12/19 08:09:18;;;;;;;;;7.75;6.25;;;;;;;;5038291;28;12258;-72
2022/12/19 08:11:46;;;;;;;;;8.25;7.00;;;;;;;;5040027;28;11555;-73
2022/12/19 08:14:18;;;;;;;;;6.00;6.00;;;;;;;;5037309;28;11448;-73
2022/12/19 08:16:45;;;;;;;;;6.00;6.00;;;;;;;;5033918;28;12341;-77
2022/12/19 08:19:13;;;;;;;;;8.00;8.00;;;;;;;;5021686;28;11448;-73
2022/12/19 08:21:44;;;;;;;;;7.25;6.25;;;;;;;;5037444;28;11449;-74
2022/12/19 08:24:12;;;;;;;;;6.25;6.25;;;;;;;;5035236;28;11436;-74
2022/12/19 08:26:42;;;;;;;;;7.00;7.00;;;;;;;;5040142;28;12643;-75
2022/12/19 08:29:09;;;;;;;;;7.00;7.00;;;;;;;;5038012;28;11431;-74
2022/12/19 08:31:39;;;;;;;;;7.00;7.00;;;;;;;;5040200;28;12193;-73
2022/12/19 08:34:08;;;;;;;;;5.00;5.00;;;;;;;;5038644;28;11434;-74
2022/12/19 08:36:37;;;;;;;;;7.50;7.50;;;;;;;;5038843;28;12438;-73
2022/12/19 08:39:04;;;;;;;;;8.75;7.25;;;;;;;;5034420;28;11597;-74
2022/12/19 08:41:31;;;;;;;;;8.00;8.00;;;;;;;;5038813;28;11447;-73
2022/12/19 08:43:59;;;;;;;;;9.00;9.00;;;;;;;;5035591;28;11580;-74
2022/12/19 08:46:27;;;;;;;;;6.25;6.25;;;;;;;;5032020;28;11487;-74
2022/12/19 08:48:55;;;;;;;;;5.75;5.75;;;;;;;;5034868;28;11508;-73
2022/12/19 08:51:23;;;;;;;;;6.00;6.00;;;;;;;;5031553;28;11492;-74
2022/12/19 08:53:51;;;;;;;;;10.50;7.00;;;;;;;;5034432;28;11616;-74
2022/12/19 08:56:20;;;;;;;;;3.00;3.00;;;;;;;;5036947;28;11556;-73
2022/12/19 08:58:48;;;;;;;;;7.50;6.00;;;;;;;;5036529;28;11499;-73
2022/12/19 09:01:18;;;;;;;;;6.75;6.75;;;;;;;;5037481;28;11582;-74
2022/12/19 09:03:47;;;;;;;;;6.75;6.75;;;;;;;;5039113;28;11407;-74
2022/12/19 09:06:16;;;;;;;;;6.00;3.50;;;;;;;;5039517;28;12728;-73
2022/12/19 09:08:43;;;;;;;;;4.00;4.00;;;;;;;;5037694;28;11453;-73
2022/12/19 09:11:12;;;;;;;;;6.25;5.50;;;;;;;;5037757;28;11532;-73
2022/12/19 09:13:41;;;;;;;;;5.50;5.50;;;;;;;;5045143;28;11463;-73
2022/12/19 09:16:12;;;;;;;;;8.00;6.25;;;;;;;;5042604;28;11462;-74
2022/12/19 09:18:40;;;;;;;;;6.75;6.75;;;;;;;;5043360;28;11426;-71
2022/12/19 09:21:08;;;;;;;;;6.00;6.00;;;;;;;;5040473;28;12224;-73
2022/12/19 09:23:37;;;;;;;;;6.25;6.25;;;;;;;;5044006;28;11570;-73
2022/12/19 09:26:08;;;;;;;;;5.00;5.00;;;;;;;;5039674;28;11429;-73
2022/12/19 09:28:36;;;;;;;;;6.25;6.25;;;;;;;;5040563;28;11222;-73
2022/12/19 09:31:06;;;;;;;;;5.75;5.75;;;;;;;;5040367;28;11246;-73
2022/12/19 09:33:36;;;;;;;;;4.00;4.00;;;;;;;;5039331;28;11090;-73
2022/12/19 09:36:04;;;;;;;;;3.75;3.50;;;;;;;;5040253;28;11939;-74
2022/12/19 09:38:34;;;;;;;;;7.00;4.50;;;;;;;;5040482;28;11129;-74
2022/12/19 09:41:20;;;;;;;;;6.75;6.50;;;;;;;;5044282;28;11882;-74
2022/12/19 09:43:56;;;;;;;;;4.00;4.00;;;;;;;;5037790;28;11538;-74
2022/12/19 09:46:30;;;;;;;;;6.00;6.00;;;;;;;;5042148;28;11127;-74
2022/12/19 09:48:58;;;;;;;;;6.50;6.50;;;;;;;;5043313;28;11116;-73
2022/12/19 09:51:34;;;;;;;;;5.75;5.00;;;;;;;;5041329;28;11159;-73
2022/12/19 09:54:07;;;;;;;;;6.00;6.00;;;;;;;;5038978;28;11036;-74
2022/12/19 09:56:38;;;;;;;;;7.50;5.25;;;;;;;;5040307;28;11194;-74
2022/12/19 09:59:13;;;;;;;;;4.75;4.75;;;;;;;;5038860;28;11076;-74
2022/12/19 10:01:50;;;;;;;;;4.00;4.00;;;;;;;;5041936;28;11054;-74
2022/12/19 10:04:20;;;;;;;;;4.00;4.00;;;;;;;;5038661;28;10988;-74
2022/12/19 10:06:49;;;;;;;;;6.75;6.50;;;;;;;;5035890;28;10985;-73
2022/12/19 10:09:20;;;;;;;;;7.25;5.50;;;;;;;;5039795;28;11263;-73
2022/12/19 10:12:02;;;;;;;;;4.75;4.75;;;;;;;;5040040;28;11176;-73
2022/12/19 10:14:42;;;;;;;;;6.00;6.00;;;;;;;;5036782;28;11256;-73
2022/12/19 10:17:16;;;;;;;;;7.50;6.50;;;;;;;;5037412;28;11135;-73
2022/12/19 10:19:51;;;;;;;;;9.75;5.25;;;;;;;;5043105;28;11239;-73
2022/12/19 10:22:27;;;;;;;;;8.00;5.50;;;;;;;;5036911;28;11472;-76
2022/12/19 10:25:26;;;;;;;;;3.25;3.00;;;;;;;;5036760;28;12169;-74
2022/12/19 10:28:01;;;;;;;;;6.00;6.00;;;;;;;;5034342;28;11459;-75
2022/12/19 10:30:34;;;;;;;;;8.50;7.00;;;;;;;;5042167;28;11063;-75
2022/12/19 10:33:13;;;;;;;;;7.50;4.00;;;;;;;;5039944;28;11124;-74
2022/12/19 10:35:43;;;;;;;;;6.00;6.00;;;;;;;;5038189;28;11121;-74
2022/12/19 10:38:20;;;;;;;;;4.00;4.00;;;;;;;;5040152;28;11207;-75
2022/12/19 10:40:52;;;;;;;;;4.00;4.00;;;;;;;;5042161;28;10986;-74
2022/12/19 10:43:26;;;;;;;;;7.00;7.00;;;;;;;;5034530;28;11321;-73
2022/12/19 10:45:57;;;;;;;;;8.00;6.00;;;;;;;;5041909;28;11152;-73
2022/12/19 10:48:25;;;;;;;;;7.00;4.75;;;;;;;;5042236;28;11058;-76
2022/12/19 10:50:52;;;;;;;;;6.00;6.00;;;;;;;;5037748;28;10979;-76
2022/12/19 10:53:27;;;;;;;;;9.50;7.00;;;;;;;;5035920;28;11100;-74
2022/12/19 10:56:00;;;;;;;;;4.00;4.00;;;;;;;;5040779;28;11102;-76
2022/12/19 10:58:34;;;;;;;;;8.25;7.25;;;;;;;;5041671;28;10995;-78
2022/12/19 11:01:10;;;;;;;;;7.50;6.50;;;;;;;;5037234;28;11123;-78
2022/12/19 11:03:39;;;;;;;;;4.75;3.00;;;;;;;;5039924;28;10930;-77
2022/12/19 11:06:10;;;;;;;;;6.50;6.00;;;;;;;;5039668;28;11046;-76
2022/12/19 11:08:37;;;;;;;;;5.25;5.25;;;;;;;;5043976;28;11804;-76
2022/12/19 11:11:14;;;;;;;;;6.00;6.00;;;;;;;;5040750;28;10911;-76
2022/12/19 11:13:46;;;;;;;;;7.00;4.00;;;;;;;;5041509;28;10820;-78
2022/12/19 11:16:21;;;;;;;;;7.00;7.00;;;;;;;;5042464;28;10973;-76
2022/12/19 11:18:49;;;;;;;;;9.00;7.00;;;;;;;;5037472;28;11016;-76
2022/12/19 11:21:19;;;;;;;;;8.75;8.75;;;;;;;;5040121;28;10908;-77
2022/12/19 11:23:52;;;;;;;;;6.00;6.00;;;;;;;;5036724;28;10840;-74
2022/12/19 11:26:30;;;;;;;;;4.00;4.00;;;;;;;;5037247;28;10867;-76
2022/12/19 11:29:03;;;;;;;;;5.75;3.75;;;;;;;;5038466;28;10700;-76
2022/12/19 11:31:32;;;;;;;;;8.25;8.25;;;;;;;;5040014;28;10977;-78
2022/12/19 11:34:05;;;;;;;;;5.00;5.00;;;;;;;;5052673;28;10974;-73
2022/12/19 11:36:36;;;;;;;;;6.50;6.50;;;;;;;;5039787;28;10760;-73
2022/12/19 11:39:11;;;;;;;;;7.50;7.50;;;;;;;;5033976;28;10929;-76
2022/12/19 11:41:53;;;;;;;;;6.50;6.50;;;;;;;;5041114;28;10846;-74
2022/12/19 11:44:30;;;;;;;;;4.00;4.00;;;;;;;;5035387;28;10833;-73
2022/12/19 11:47:04;;;;;;;;;6.75;4.25;;;;;;;;5036943;28;10993;-75
2022/12/19 11:49:35;;;;;;;;;7.00;7.00;;;;;;;;5041700;28;10921;-76
2022/12/19 11:52:11;;;;;;;;;10.50;9.00;;;;;;;;5041513;28;10879;-75
2022/12/19 11:54:48;;;;;;;;;8.00;7.50;;;;;;;;5036946;28;10829;-76
2022/12/19 11:57:19;;;;;;;;;9.00;7.00;;;;;;;;5038344;28;10827;-75
2022/12/19 11:59:48;;;;;;;;;5.75;5.00;;;;;;;;5041151;28;10930;-76
2022/12/19 12:02:44;;;;;;;;;7.00;6.25;;;;;;;;5040020;28;11592;-76
2022/12/19 12:05:57;;;;;;;;;8.75;8.75;;;;;;;;5054436;28;10809;-77
2022/12/19 12:08:42;;;;;;;;;4.75;4.75;;;;;;;;5028111;28;10920;-74
2022/12/19 12:11:25;;;;;;;;;8.00;8.00;;;;;;;;5039209;28;10688;-74
2022/12/19 12:14:16;;;;;;;;;6.50;6.50;;;;;;;;5037973;28;11520;-74
2022/12/19 12:17:00;;;;;;;;;7.00;7.00;;;;;;;;5054231;28;10908;-77
2022/12/19 12:19:44;;;;;;;;;7.00;7.00;;;;;;;;5038438;28;10685;-75
2022/12/19 12:22:24;;;;;;;;;5.00;5.00;;;;;;;;5039716;28;10819;-75
2022/12/19 12:24:59;;;;;;;;;5.25;5.25;;;;;;;;5040505;28;10669;-75
2022/12/19 12:27:38;;;;;;;;;5.00;5.00;;;;;;;;5034571;28;10645;-75
2022/12/19 12:30:10;;;;;;;;;5.00;5.00;;;;;;;;5037859;28;10606;-76
2022/12/19 12:32:52;;;;;;;;;6.50;6.50;;;;;;;;5035612;28;10540;-76
2022/12/19 12:35:27;;;;;;;;;7.00;7.00;;;;;;;;5040044;28;11397;-77
2022/12/19 12:38:03;;;;;;;;;5.50;5.50;;;;;;;;5040352;28;10592;-75
2022/12/19 12:40:51;;;;;;;;;7.25;7.25;;;;;;;;5037996;28;10723;-76
2022/12/19 12:43:35;;;;;;;;;6.75;6.75;;;;;;;;5034627;28;11484;-76
2022/12/19 12:46:04;;;;;;;;;5.25;5.25;;;;;;;;5036394;28;10629;-76
2022/12/19 12:48:36;;;;;;;;;5.25;5.25;;;;;;;;5037673;28;10630;-76
2022/12/19 12:51:04;;;;;;;;;4.00;4.00;;;;;;;;5033511;28;10636;-76
2022/12/19 12:53:34;;;;;;;;;7.00;7.00;;;;;;;;5022276;28;10545;-77
2022/12/19 12:56:04;;;;;;;;;6.25;6.00;;;;;;;;5054096;28;11332;-73
2022/12/19 12:59:20;;;;;;;;;4.75;2.75;;;;;;;;5036291;28;10520;-75
2022/12/19 13:01:51;;;;;;;;;7.50;5.25;;;;;;;;5009119;28;10578;-76
2022/12/19 13:04:28;;;;;;;;;6.75;6.75;;;;;;;;5034394;28;11357;-75
2022/12/19 13:07:19;;;;;;;;;6.25;4.75;;;;;;;;5034774;28;10577;-74
2022/12/19 13:09:54;;;;;;;;;4.25;4.25;;;;;;;;5035572;28;11111;-76
2022/12/19 13:15:42;;;;;;;;;6.00;5.00;;;;;;;;5034853;28;10417;-74
2022/12/19 13:18:32;;;;;;;;;8.50;6.50;;;;;;;;5040525;28;10251;-73
2022/12/19 13:21:03;;;;;;;;;5.50;5.50;;;;;;;;5041271;28;10546;-75
2022/12/19 13:23:45;;;;;;;;;7.75;7.00;;;;;;;;5040572;28;10791;-75
2022/12/19 13:26:48;;;;;;;;;8.00;4.00;;;;;;;;5042268;28;10539;-76
2022/12/19 13:29:53;;;;;;;;;8.50;7.00;;;;;;;;5036120;28;10691;-74
2022/12/19 13:32:21;;;;;;;;;5.00;5.00;;;;;;;;5017686;28;10394;-73
2022/12/19 13:34:55;;;;;;;;;6.00;6.00;;;;;;;;5053418;28;10395;-78
2022/12/19 13:37:41;;;;;;;;;7.50;7.50;;;;;;;;5040206;28;10561;-74
2022/12/19 13:40:28;;;;;;;;;7.50;7.25;;;;;;;;5036939;28;10289;-73
2022/12/19 13:45:59;;;;;;;;;9.25;6.50;;;;;;;;5035499;28;10128;-72
2022/12/19 13:48:32;;;;;;;;;7.00;7.00;;;;;;;;5038547;28;10147;-72
2022/12/19 13:51:04;;;;;;;;;5.50;5.50;;;;;;;;5036572;28;10920;-73
2022/12/19 13:53:33;;;;;;;;;6.25;5.00;;;;;;;;5033171;28;10100;-72
2022/12/19 13:56:06;;;;;;;;;4.00;4.00;;;;;;;;5034397;28;10034;-73
2022/12/19 13:58:36;;;;;;;;;3.00;3.00;;;;;;;;5039943;28;10164;-73
2022/12/19 14:01:09;;;;;;;;;4.00;4.00;;;;;;;;5043266;28;10176;-73
2022/12/19 14:03:41;;;;;;;;;4.50;4.50;;;;;;;;5042881;28;10178;-73
2022/12/19 14:06:11;;;;;;;;;7.00;4.00;;;;;;;;5044655;28;10181;-73
2022/12/19 14:08:49;;;;;;;;;2.50;2.50;;;;;;;;5040098;28;10032;-74
2022/12/19 14:11:18;;;;;;;;;7.75;5.00;;;;;;;;5040923;28;10276;-73
2022/12/19 14:16:29;;;;;;;;;5.75;5.75;;;;;;;;5022292;28;10109;-73
2022/12/19 14:18:59;;;;;;;;;7.00;5.50;;;;;;;;5039475;28;10253;-73
2022/12/19 14:21:31;;;;;;;;;7.25;5.00;;;;;;;;5039132;28;10251;-73
2022/12/19 14:24:19;;;;;;;;;8.00;8.00;;;;;;;;5037558;28;10238;-73
2022/12/19 14:26:48;;;;;;;;;5.25;5.25;;;;;;;;5043188;28;10250;-73
2022/12/19 14:29:19;;;;;;;;;4.00;4.00;;;;;;;;5038736;28;10269;-72
2022/12/19 14:31:47;;;;;;;;;3.25;3.25;;;;;;;;5043138;28;10158;-74
2022/12/19 14:34:20;;;;;;;;;7.00;7.00;;;;;;;;5040334;28;11179;-73
2022/12/19 14:36:50;;;;;;;;;7.00;7.00;;;;;;;;5042003;28;10290;-74
2022/12/19 14:39:21;;;;;;;;;9.75;8.00;;;;;;;;5057618;28;10440;-74
2022/12/19 14:44:48;;;;;;;;;6.50;6.50;;;;;;;;5055071;28;10232;-73
2022/12/19 14:47:23;;;;;;;;;5.25;5.25;;;;;;;;5056151;28;10312;-72
2022/12/19 14:49:51;;;;;;;;;9.25;8.75;;;;;;;;5042917;28;10448;-75
2022/12/19 14:52:39;;;;;;;;;9.00;9.00;;;;;;;;5040974;28;10461;-73
2022/12/19 14:55:30;;;;;;;;;7.50;7.50;;;;;;;;5036968;28;10474;-74
2022/12/19 14:57:58;;;;;;;;;7.00;7.00;;;;;;;;5039809;28;10302;-73
2022/12/19 15:00:28;;;;;;;;;5.25;5.25;;;;;;;;5036096;28;10457;-74
2022/12/19 15:02:57;;;;;;;;;7.50;7.25;;;;;;;;5036919;28;10304;-74
2022/12/19 15:05:25;;;;;;;;;3.25;3.25;;;;;;;;5035904;28;10474;-74
2022/12/19 15:07:54;;;;;;;;;7.75;7.75;;;;;;;;5037186;28;10318;-74
2022/12/19 15:10:26;;;;;;;;;5.50;5.50;;;;;;;;5035805;28;10154;-73
2022/12/19 15:15:47;;;;;;;;;6.00;5.50;;;;;;;;5042259;28;10163;-74
2022/12/19 15:18:24;;;;;;;;;7.50;7.50;;;;;;;;5037665;28;10189;-75
2022/12/19 15:20:54;;;;;;;;;5.00;5.00;;;;;;;;5037999;28;10414;-75